Time;durP1;ratioP1;P1;durP2;ratioP2;P2;SDS_P1;SDS_P2;PMS_P1;PMS_P2;Temp;Humidity;BMP_temperature;BMP_pressure;BME280_temperature;BME280_humidity;BME280_pressure;Samples;Min_cycle;Max_cycle;Signal;HPM_P1;HPM_P2
2022/05/20 00:01:55;;;;;;;;;;;;;;;22.55;100.00;99496.09;5023201;28;19917;-40
2022/05/20 00:04:20;;;;;;;;;;;;;;;22.36;100.00;99490.56;5021559;28;19925;-40
2022/05/20 00:06:45;;;;;;;;;;;;;;;22.39;100.00;99489.50;5026653;28;20305;-40
2022/05/20 00:09:11;;;;;;;;;;;;;;;22.06;100.00;99493.59;5025151;28;19917;-40
2022/05/20 00:11:36;;;;;;;;;;;;;;;22.08;100.00;99487.28;5026442;28;19923;-40
2022/05/20 00:14:01;;;;;;;;;;;;;;;21.89;100.00;99486.91;5027510;28;19928;-40
2022/05/20 00:16:27;;;;;;;;;;;;;;;22.06;100.00;99489.19;5024654;28;19932;-40
2022/05/20 00:18:52;;;;;;;;;;;;;;;22.59;100.00;99488.03;5027314;28;19920;-40
2022/05/20 00:21:17;;;;;;;;;;;;;;;23.01;100.00;99483.97;5027315;28;19924;-40
2022/05/20 00:23:42;;;;;;;;;;;;;;;23.07;100.00;99487.94;5024518;28;20555;-40
2022/05/20 00:26:08;;;;;;;;;;;;;;;23.34;100.00;99482.38;5022616;28;19916;-40
2022/05/20 00:28:33;;;;;;;;;;;;;;;23.18;100.00;99480.09;5026964;28;19917;-40
2022/05/20 00:31:04;;;;;;;;;;;;;;;23.07;100.00;99483.53;5025162;28;20878;-40
2022/05/20 00:33:30;;;;;;;;;;;;;;;23.03;100.00;99481.25;5022448;28;19921;-40
2022/05/20 00:35:55;;;;;;;;;;;;;;;22.92;100.00;99476.78;5025366;28;20349;-40
2022/05/20 00:38:21;;;;;;;;;;;;;;;22.87;100.00;99486.78;5025202;28;19921;-40
2022/05/20 00:40:47;;;;;;;;;;;;;;;22.85;100.00;99481.66;5027646;28;19928;-41
2022/05/20 00:43:12;;;;;;;;;;;;;;;23.44;100.00;99479.84;5027519;28;19921;-42
2022/05/20 00:45:38;;;;;;;;;;;;;;;23.36;100.00;99477.84;5025110;28;20014;-40
2022/05/20 00:48:03;;;;;;;;;;;;;;;23.41;100.00;99480.09;5023197;28;19933;-40
2022/05/20 00:50:28;;;;;;;;;;;;;;;23.78;100.00;99475.44;5024800;28;19923;-40
2022/05/20 00:52:54;;;;;;;;;;;;;;;22.87;100.00;99485.00;5004354;28;19924;-40
2022/05/20 00:55:20;;;;;;;;;;;;;;;22.55;100.00;99484.78;5025884;28;19924;-40
2022/05/20 00:57:48;;;;;;;;;;;;;;;22.06;100.00;99480.47;5002930;28;20032;-40
2022/05/20 01:00:15;;;;;;;;;;;;;;;21.58;100.00;99478.59;5004811;28;19925;-40
2022/05/20 01:02:40;;;;;;;;;;;;;;;21.89;100.00;99486.91;5022666;28;19917;-40
2022/05/20 01:05:26;;;;;;;;;;;;;;;21.36;100.00;99484.44;5023871;28;20253;-40
2022/05/20 01:07:51;;;;;;;;;;;;;;;21.18;100.00;99486.53;5021489;28;19944;-40
2022/05/20 01:10:17;;;;;;;;;;;;;;;20.60;100.00;99490.47;5024582;28;20799;-40
2022/05/20 01:12:42;;;;;;;;;;;;;;;20.68;100.00;99485.53;5026141;28;20353;-41
2022/05/20 01:15:07;;;;;;;;;;;;;;;20.51;100.00;99491.03;5025965;28;19921;-40
2022/05/20 01:17:33;;;;;;;;;;;;;;;20.54;100.00;99485.59;5006041;28;19931;-40
2022/05/20 01:19:58;;;;;;;;;;;;;;;20.79;100.00;99490.06;5006168;28;19921;-40
2022/05/20 01:22:42;;;;;;;;;;;;;;;20.72;100.00;99500.13;5024078;28;19992;-40
2022/05/20 01:25:08;;;;;;;;;;;;;;;20.65;100.00;99509.31;5022895;28;19923;-40
2022/05/20 01:27:36;;;;;;;;;;;;;;;20.37;100.00;99495.38;5021179;28;19921;-40
2022/05/20 01:30:01;;;;;;;;;;;;;;;20.23;100.00;99496.28;5023245;28;19920;-40
2022/05/20 01:32:27;;;;;;;;;;;;;;;20.90;100.00;99503.28;5023345;28;20294;-40
2022/05/20 01:34:52;;;;;;;;;;;;;;;21.35;100.00;99502.88;5027357;28;19925;-40
2022/05/20 01:37:17;;;;;;;;;;;;;;;21.78;100.00;99500.81;5022100;28;19921;-40
2022/05/20 01:39:42;;;;;;;;;;;;;;;22.24;100.00;99504.59;5028137;28;20366;-40
2022/05/20 01:42:12;;;;;;;;;;;;;;;22.59;100.00;99501.16;5024044;28;19991;-40
2022/05/20 01:44:45;;;;;;;;;;;;;;;22.64;100.00;99506.91;5007531;28;20039;-40
2022/05/20 01:47:13;;;;;;;;;;;;;;;22.79;100.00;99495.25;5026444;28;20361;-40
2022/05/20 01:49:52;;;;;;;;;;;;;;;22.57;100.00;99503.06;5028850;28;20362;-40
2022/05/20 01:52:35;;;;;;;;;;;;;;;21.33;100.00;99489.09;5009558;28;19959;-40
2022/05/20 01:55:00;;;;;;;;;;;;;;;20.80;100.00;99503.06;5002680;28;20389;-40
2022/05/20 01:57:32;;;;;;;;;;;;;;;20.68;100.00;99496.00;4959311;28;1815412;-40
2022/05/20 02:00:00;;;;;;;;;;;;;;;20.71;100.00;99498.44;5025615;28;20059;-40
2022/05/20 02:02:28;;;;;;;;;;;;;;;21.04;100.00;99492.72;5007723;28;19973;-40
2022/05/20 02:04:55;;;;;;;;;;;;;;;21.24;100.00;99488.75;5006591;28;21054;-40
2022/05/20 02:07:25;;;;;;;;;;;;;;;21.06;100.00;99492.63;5007116;28;19920;-40
2022/05/20 02:09:55;;;;;;;;;;;;;;;21.00;100.00;99495.66;5005668;28;19957;-40
2022/05/20 02:12:22;;;;;;;;;;;;;;;21.01;100.00;99489.50;5006792;28;19959;-40
2022/05/20 02:15:10;;;;;;;;;;;;;;;21.33;100.00;99483.84;5004395;28;19921;-40
2022/05/20 02:17:36;;;;;;;;;;;;;;;21.56;100.00;99496.22;5017786;28;19920;-40
2022/05/20 02:20:04;;;;;;;;;;;;;;;22.08;100.00;99489.91;5022812;28;20314;-40
2022/05/20 02:22:30;;;;;;;;;;;;;;;22.33;100.00;99488.16;5020637;28;19921;-39
2022/05/20 02:24:55;;;;;;;;;;;;;;;21.94;100.00;99490.06;4989187;28;19932;-39
2022/05/20 02:27:22;;;;;;;;;;;;;;;22.00;100.00;99484.34;5001324;28;20566;-39
2022/05/20 02:29:52;;;;;;;;;;;;;;;22.49;100.00;99480.84;5003798;28;19920;-39
2022/05/20 02:32:22;;;;;;;;;;;;;;;22.47;100.00;99489.78;5023101;28;19924;-39
2022/05/20 02:34:48;;;;;;;;;;;;;;;22.35;100.00;99483.63;5021490;28;19921;-39
2022/05/20 02:37:17;;;;;;;;;;;;;;;22.10;100.00;99482.75;5003051;28;20806;-39
2022/05/20 02:39:43;;;;;;;;;;;;;;;22.44;100.00;99472.47;5023188;28;19964;-39
2022/05/20 02:42:08;;;;;;;;;;;;;;;22.47;100.00;99471.41;5023275;28;20437;-40
2022/05/20 02:44:33;;;;;;;;;;;;;;;23.09;100.00;99470.28;5022676;28;20501;-39
2022/05/20 02:46:58;;;;;;;;;;;;;;;23.40;100.00;99466.13;5023522;28;19921;-40
2022/05/20 02:49:24;;;;;;;;;;;;;;;23.02;100.00;99471.72;5023268;28;19921;-39
2022/05/20 02:51:49;;;;;;;;;;;;;;;23.27;100.00;99471.50;5025926;28;19920;-40
2022/05/20 02:54:14;;;;;;;;;;;;;;;23.16;100.00;99479.38;5022684;28;19923;-40
2022/05/20 02:56:39;;;;;;;;;;;;;;;23.25;100.00;99476.03;5025174;28;19920;-40
2022/05/20 03:04:32;;;;;;;;;;;;;;;23.33;100.00;99471.03;5020906;28;20079;-40
2022/05/20 03:06:58;;;;;;;;;;;;;;;23.45;100.00;99474.50;5019891;28;19917;-40
2022/05/20 03:09:23;;;;;;;;;;;;;;;23.46;100.00;99472.69;5021337;28;19921;-40
2022/05/20 03:11:49;;;;;;;;;;;;;;;23.61;100.00;99463.63;5018902;28;19968;-40
2022/05/20 03:14:15;;;;;;;;;;;;;;;23.44;100.00;99464.09;5002353;28;20401;-40
2022/05/20 03:16:41;;;;;;;;;;;;;;;22.55;100.00;99475.13;5022582;28;19928;-40
2022/05/20 03:19:06;;;;;;;;;;;;;;;22.51;100.00;99471.06;5021457;28;19991;-40
2022/05/20 03:21:32;;;;;;;;;;;;;;;23.20;100.00;99461.59;5020414;28;19917;-40
2022/05/20 03:23:59;;;;;;;;;;;;;;;22.20;100.00;99471.59;5019856;28;19916;-40
2022/05/20 03:26:25;;;;;;;;;;;;;;;21.42;100.00;99473.59;5023580;28;19979;-40
2022/05/20 03:28:50;;;;;;;;;;;;;;;21.82;100.00;99477.81;5018894;28;19921;-39
2022/05/20 03:31:15;;;;;;;;;;;;;;;21.85;100.00;99467.09;5018361;28;19921;-40
2022/05/20 03:33:41;;;;;;;;;;;;;;;22.85;100.00;99470.31;5017600;28;19924;-40
2022/05/20 03:36:07;;;;;;;;;;;;;;;23.53;100.00;99466.00;5019315;28;20505;-40
2022/05/20 03:38:32;;;;;;;;;;;;;;;23.68;100.00;99469.22;5004735;28;19922;-40
2022/05/20 03:40:57;;;;;;;;;;;;;;;23.79;100.00;99475.34;5017696;28;20184;-40
2022/05/20 03:43:23;;;;;;;;;;;;;;;23.73;100.00;99467.06;5017403;28;19921;-40
2022/05/20 03:45:50;;;;;;;;;;;;;;;23.79;100.00;99466.63;5017411;28;20640;-40
2022/05/20 03:48:15;;;;;;;;;;;;;;;23.75;100.00;99460.75;5017972;28;19917;-40
2022/05/20 03:50:41;;;;;;;;;;;;;;;23.84;100.00;99461.00;5025309;28;19940;-40
2022/05/20 03:53:06;;;;;;;;;;;;;;;23.75;100.00;99459.91;5014607;28;19924;-40
2022/05/20 03:55:31;;;;;;;;;;;;;;;23.65;100.00;99458.94;5017766;28;20368;-40
2022/05/20 03:57:57;;;;;;;;;;;;;;;23.91;100.00;99459.53;5020315;28;20464;-40
2022/05/20 04:00:22;;;;;;;;;;;;;;;23.87;100.00;99464.19;5010148;28;20541;-40
2022/05/20 04:02:47;;;;;;;;;;;;;;;24.10;100.00;99469.41;5030818;28;20097;-40
2022/05/20 04:05:12;;;;;;;;;;;;;;;23.99;100.00;99467.63;5020197;28;19975;-44
2022/05/20 04:07:40;;;;;;;;;;;;;;;23.90;100.00;99463.09;5018366;28;19920;-40
2022/05/20 04:10:06;;;;;;;;;;;;;;;23.88;100.00;99454.50;5019366;28;19964;-40
2022/05/20 04:12:35;;;;;;;;;;;;;;;23.95;100.00;99446.00;5020200;28;20092;-40
2022/05/20 04:15:01;;;;;;;;;;;;;;;23.78;100.00;99449.97;4999306;28;19921;-40
2022/05/20 04:17:26;;;;;;;;;;;;;;;23.63;100.00;99450.31;5019718;28;20310;-39
2022/05/20 04:19:52;;;;;;;;;;;;;;;23.69;100.00;99455.94;5022193;28;19956;-46
2022/05/20 04:22:19;;;;;;;;;;;;;;;23.68;100.00;99448.19;5014610;28;19921;-44
2022/05/20 04:24:45;;;;;;;;;;;;;;;23.63;100.00;99456.44;5001795;28;20389;-46
2022/05/20 04:27:10;;;;;;;;;;;;;;;24.13;100.00;99459.47;5029884;28;20012;-40
2022/05/20 04:29:36;;;;;;;;;;;;;;;24.39;100.00;99453.88;5037830;28;19944;-46
2022/05/20 04:32:01;;;;;;;;;;;;;;;24.34;100.00;99450.78;5009651;28;19968;-48
2022/05/20 04:34:26;;;;;;;;;;;;;;;24.16;100.00;99456.59;5028692;28;19921;-46
2022/05/20 04:36:51;;;;;;;;;;;;;;;24.05;100.00;99455.78;5032553;28;20084;-45
2022/05/20 04:39:17;;;;;;;;;;;;;;;24.23;100.00;99464.00;5032265;28;19928;-45
2022/05/20 04:47:21;;;;;;;;;;;;;;;24.07;100.00;99462.59;5034921;28;19986;-47
2022/05/20 04:49:46;;;;;;;;;;;;;;;24.11;100.00;99464.03;5012701;28;20278;-39
2022/05/20 04:52:11;;;;;;;;;;;;;;;24.36;100.00;99459.41;5022171;28;19917;-39
2022/05/20 04:54:49;;;;;;;;;;;;;;;24.29;100.00;99463.47;5025757;28;19928;-40
2022/05/20 04:57:23;;;;;;;;;;;;;;;24.12;100.00;99467.50;5028061;28;19926;-40
2022/05/20 04:59:51;;;;;;;;;;;;;;;24.28;100.00;99462.66;5008528;28;19925;-40
2022/05/20 05:02:16;;;;;;;;;;;;;;;24.38;100.00;99462.72;5023692;28;19924;-40
2022/05/20 05:04:42;;;;;;;;;;;;;;;24.60;100.00;99467.91;5029959;28;19917;-40
2022/05/20 05:07:11;;;;;;;;;;;;;;;24.38;100.00;99465.34;5029889;28;19924;-39
2022/05/20 05:09:37;;;;;;;;;;;;;;;24.44;100.00;99472.75;5026346;28;19917;-40
2022/05/20 05:12:06;;;;;;;;;;;;;;;24.14;100.00;99476.94;5030620;28;19963;-39
2022/05/20 05:14:35;;;;;;;;;;;;;;;23.43;100.00;99480.84;5041501;28;19995;-39
2022/05/20 05:17:03;;;;;;;;;;;;;;;23.65;100.00;99472.94;5035812;28;19917;-39
2022/05/20 05:19:29;;;;;;;;;;;;;;;24.09;100.00;99479.09;5034019;28;20051;-39
2022/05/20 05:21:54;;;;;;;;;;;;;;;24.29;100.00;99469.59;5029111;28;19916;-39
2022/05/20 05:24:19;;;;;;;;;;;;;;;23.86;100.00;99466.97;5025165;28;19948;-43
2022/05/20 05:26:45;;;;;;;;;;;;;;;24.10;100.00;99475.50;5026447;28;20940;-39
2022/05/20 05:29:11;;;;;;;;;;;;;;;24.10;100.00;99466.78;5023367;28;19923;-39
2022/05/20 05:31:36;;;;;;;;;;;;;;;23.62;100.00;99474.97;5029390;28;20077;-40
2022/05/20 05:34:02;;;;;;;;;;;;;;;23.84;100.00;99461.00;5028398;28;19927;-39
2022/05/20 05:36:27;;;;;;;;;;;;;;;23.96;100.00;99462.63;5025267;28;19917;-39
2022/05/20 05:38:52;;;;;;;;;;;;;;;24.01;100.00;99465.72;5025424;28;19951;-39
2022/05/20 05:41:19;;;;;;;;;;;;;;;24.16;100.00;99464.47;5025316;28;19924;-40
2022/05/20 05:43:44;;;;;;;;;;;;;;;24.39;100.00;99456.50;5021734;28;20003;-39
2022/05/20 05:46:09;;;;;;;;;;;;;;;24.17;100.00;99454.78;5024353;28;20397;-40
2022/05/20 05:48:35;;;;;;;;;;;;;;;23.79;100.00;99446.41;5024002;28;19923;-40
2022/05/20 05:51:02;;;;;;;;;;;;;;;24.18;100.00;99449.41;5022156;28;19917;-40
2022/05/20 05:53:27;;;;;;;;;;;;;;;23.78;100.00;99455.22;5004388;28;20012;-39
2022/05/20 05:55:56;;;;;;;;;;;;;;;24.48;100.00;99445.25;5027112;28;19990;-40
2022/05/20 05:58:21;;;;;;;;;;;;;;;23.33;100.00;99444.75;5025535;28;20736;-39
2022/05/20 06:00:47;;;;;;;;;;;;;;;22.75;100.00;99442.13;5027069;28;19952;-40
2022/05/20 06:03:15;;;;;;;;;;;;;;;22.73;100.00;99441.41;5023031;28;19917;-40
2022/05/20 06:05:41;;;;;;;;;;;;;;;23.27;100.00;99439.97;5025780;28;19912;-40
2022/05/20 06:08:06;;;;;;;;;;;;;;;22.98;100.00;99436.91;5026959;28;19917;-40
2022/05/20 06:10:31;;;;;;;;;;;;;;;23.08;100.00;99439.69;5026401;28;20433;-40
2022/05/20 06:12:57;;;;;;;;;;;;;;;23.72;100.00;99428.56;5024293;28;19927;-40
2022/05/20 06:15:22;;;;;;;;;;;;;;;22.07;100.00;99438.38;5028140;28;19956;-40
2022/05/20 06:17:48;;;;;;;;;;;;;;;23.16;100.00;99426.81;5026185;28;19924;-39
2022/05/20 06:20:13;;;;;;;;;;;;;;;24.01;100.00;99428.88;5025914;28;19925;-39
2022/05/20 06:22:38;;;;;;;;;;;;;;;23.26;100.00;99440.91;5025448;28;19921;-40
2022/05/20 06:25:04;;;;;;;;;;;;;;;23.96;100.00;99444.22;5025252;28;19953;-40
2022/05/20 06:27:31;;;;;;;;;;;;;;;22.80;100.00;99451.44;5025878;28;20425;-39
2022/05/20 06:29:56;;;;;;;;;;;;;;;23.65;100.00;99432.63;5024310;28;19971;-39
2022/05/20 06:32:21;;;;;;;;;;;;;;;24.16;100.00;99432.91;5023321;28;19927;-40
2022/05/20 06:40:16;;;;;;;;;;;;;;;23.18;100.00;99409.97;5021531;28;19978;-40
2022/05/20 06:42:42;;;;;;;;;;;;;;;22.19;100.00;99409.56;5006371;28;20574;-39
2022/05/20 06:45:08;;;;;;;;;;;;;;;22.62;100.00;99411.66;5024192;28;20032;-39
2022/05/20 06:47:33;;;;;;;;;;;;;;;22.62;100.00;99417.75;5027051;28;19920;-39
2022/05/20 06:49:58;;;;;;;;;;;;;;;23.69;100.00;99416.50;5027450;28;19921;-39
2022/05/20 06:52:24;;;;;;;;;;;;;;;23.46;100.00;99418.31;5025095;28;19921;-40
2022/05/20 06:54:49;;;;;;;;;;;;;;;24.87;100.00;99413.06;5024317;28;21056;-40
2022/05/20 06:57:20;;;;;;;;;;;;;;;24.18;100.00;99412.56;5022027;28;20344;-39
2022/05/20 06:59:45;;;;;;;;;;;;;;;24.39;100.00;99412.59;5023356;28;19921;-39
2022/05/20 07:02:11;;;;;;;;;;;;;;;24.01;100.00;99407.84;5025737;28;19923;-39
2022/05/20 07:04:36;;;;;;;;;;;;;;;24.73;100.00;99401.06;5025129;28;19917;-40
2022/05/20 07:07:02;;;;;;;;;;;;;;;25.17;100.00;99402.53;5026374;28;20322;-40
2022/05/20 07:09:27;;;;;;;;;;;;;;;24.38;100.00;99400.41;5005515;28;19967;-42
2022/05/20 07:11:53;;;;;;;;;;;;;;;24.73;100.00;99395.81;5021151;28;20485;-39
2022/05/20 07:14:18;;;;;;;;;;;;;;;25.10;100.00;99393.47;5019828;28;20318;-39
2022/05/20 07:16:43;;;;;;;;;;;;;;;25.05;100.00;99388.59;5025596;28;20381;-39
2022/05/20 07:19:09;;;;;;;;;;;;;;;25.29;100.00;99395.38;5023808;28;19921;-39
2022/05/20 07:21:34;;;;;;;;;;;;;;;26.19;100.00;99389.19;5021679;28;19916;-39
2022/05/20 07:24:01;;;;;;;;;;;;;;;24.99;100.00;99391.75;5024310;28;19923;-39
2022/05/20 07:26:26;;;;;;;;;;;;;;;24.93;100.00;99380.91;5024466;28;19921;-39
2022/05/20 07:28:52;;;;;;;;;;;;;;;25.28;100.00;99388.44;5022484;28;19924;-39
2022/05/20 07:31:17;;;;;;;;;;;;;;;24.48;100.00;99389.97;5022910;28;19940;-40
2022/05/20 07:33:43;;;;;;;;;;;;;;;25.36;100.00;99391.25;5023204;28;20007;-39
2022/05/20 07:36:08;;;;;;;;;;;;;;;25.26;100.00;99385.13;5022408;28;20038;-40
2022/05/20 07:38:34;;;;;;;;;;;;;;;23.39;100.00;99389.06;5028531;28;19939;-39
2022/05/20 07:41:00;;;;;;;;;;;;;;;24.73;100.00;99382.63;5025877;28;19924;-40
2022/05/20 07:43:25;;;;;;;;;;;;;;;24.79;100.00;99376.81;5027149;28;20367;-39
2022/05/20 07:45:51;;;;;;;;;;;;;;;25.49;100.00;99377.00;5021321;28;19916;-39
2022/05/20 07:48:16;;;;;;;;;;;;;;;25.50;100.00;99386.56;5022493;28;20024;-40
2022/05/20 07:50:44;;;;;;;;;;;;;;;27.13;100.00;99368.09;5029789;28;19967;-40
2022/05/20 07:53:21;;;;;;;;;;;;;;;24.55;100.00;99377.94;5010793;28;19917;-39
2022/05/20 07:55:53;;;;;;;;;;;;;;;24.49;100.00;99377.63;5029844;28;20576;-40
2022/05/20 07:58:19;;;;;;;;;;;;;;;25.02;100.00;99367.81;5024989;28;19921;-39
2022/05/20 08:00:45;;;;;;;;;;;;;;;25.46;100.00;99376.28;5006959;28;19917;-39
2022/05/20 08:03:10;;;;;;;;;;;;;;;23.65;100.00;99369.53;5024521;28;19974;-39
2022/05/20 08:05:36;;;;;;;;;;;;;;;26.58;100.00;99362.75;5006414;28;19920;-39
2022/05/20 08:08:03;;;;;;;;;;;;;;;25.64;100.00;99362.47;5025657;28;20548;-39
2022/05/20 08:10:29;;;;;;;;;;;;;;;25.31;100.00;99356.53;5005234;28;19948;-39
2022/05/20 08:12:55;;;;;;;;;;;;;;;25.51;100.00;99356.59;5026581;28;19924;-39
2022/05/20 08:15:20;;;;;;;;;;;;;;;25.33;100.00;99353.78;5024071;28;21193;-39
2022/05/20 08:17:45;;;;;;;;;;;;;;;26.67;100.00;99340.75;5021945;28;19948;-39
2022/05/20 08:20:13;;;;;;;;;;;;;;;25.57;100.00;99343.69;5023434;28;19921;-39
2022/05/20 08:22:38;;;;;;;;;;;;;;;25.51;100.00;99343.41;5027033;28;20417;-39
2022/05/20 08:25:04;;;;;;;;;;;;;;;25.23;100.00;99330.03;5023690;28;19917;-39
2022/05/20 08:27:30;;;;;;;;;;;;;;;24.79;100.00;99322.38;5029170;28;19987;-39
2022/05/20 08:29:55;;;;;;;;;;;;;;;26.60;100.00;99317.72;5010573;28;20752;-39
2022/05/20 08:32:21;;;;;;;;;;;;;;;26.51;100.00;99311.44;5028937;28;20420;-39
2022/05/20 08:34:46;;;;;;;;;;;;;;;26.95;100.00;99295.84;5025043;28;19913;-39
2022/05/20 08:37:12;;;;;;;;;;;;;;;26.04;100.00;99290.25;5006794;28;20375;-39
2022/05/20 08:39:37;;;;;;;;;;;;;;;25.23;100.00;99279.94;5008977;28;19927;-39
2022/05/20 08:42:04;;;;;;;;;;;;;;;25.14;100.00;99272.81;5007304;28;19921;-39
2022/05/20 08:44:30;;;;;;;;;;;;;;;25.66;100.00;99297.22;5008345;28;19931;-40
2022/05/20 08:47:14;;;;;;;;;;;;;;;25.98;100.00;99282.91;5007738;28;19917;-39
2022/05/20 08:49:39;;;;;;;;;;;;;;;26.79;100.00;99280.63;5025250;28;19924;-39
2022/05/20 08:52:05;;;;;;;;;;;;;;;25.44;100.00;99288.56;5011423;28;20416;-39
2022/05/20 08:54:30;;;;;;;;;;;;;;;25.92;100.00;99275.56;5026377;28;19917;-39
2022/05/20 08:56:55;;;;;;;;;;;;;;;25.03;100.00;99281.66;5013696;28;19952;-48
2022/05/20 08:59:20;;;;;;;;;;;;;;;26.54;100.00;99268.88;5028862;28;19932;-44
2022/05/20 09:01:47;;;;;;;;;;;;;;;26.94;100.00;99266.91;5027481;28;19916;-39
2022/05/20 09:04:13;;;;;;;;;;;;;;;28.46;100.00;99255.38;5025467;28;19921;-39
2022/05/20 09:06:59;;;;;;;;;;;;;;;28.44;100.00;99256.50;5026811;28;19920;-39
2022/05/20 09:09:42;;;;;;;;;;;;;;;27.12;100.00;99250.13;5024571;28;19917;-39
2022/05/20 09:12:08;;;;;;;;;;;;;;;27.52;100.00;99256.81;5030033;28;19943;-40
2022/05/20 09:17:22;;;;;;;;;;;;;;;26.33;100.00;99241.88;5033163;28;19923;-40
2022/05/20 09:19:53;;;;;;;;;;;;;;;28.65;100.00;99230.50;5035905;28;19971;-39
2022/05/20 09:22:24;;;;;;;;;;;;;;;28.01;100.00;99229.09;5027239;28;19924;-39
2022/05/20 09:24:49;;;;;;;;;;;;;;;25.83;100.00;99235.81;5029459;28;19917;-39
2022/05/20 09:27:18;;;;;;;;;;;;;;;27.98;100.00;99226.78;5027566;28;19940;-39
2022/05/20 09:29:47;;;;;;;;;;;;;;;28.48;100.00;99228.75;5009803;28;19939;-39
2022/05/20 09:32:15;;;;;;;;;;;;;;;28.07;100.00;99229.31;5007538;28;19999;-39
2022/05/20 09:34:41;;;;;;;;;;;;;;;28.38;100.00;99225.38;5024172;28;19917;-39
2022/05/20 09:37:06;;;;;;;;;;;;;;;29.06;100.00;99232.41;5009567;28;19951;-39
2022/05/20 09:39:31;;;;;;;;;;;;;;;29.22;100.00;99234.31;5028530;28;20421;-39
2022/05/20 09:41:57;;;;;;;;;;;;;;;28.99;100.00;99226.97;5028670;28;19917;-39
2022/05/20 09:44:24;;;;;;;;;;;;;;;29.29;100.00;99222.09;5008276;28;19921;-40
2022/05/20 09:46:59;;;;;;;;;;;;;;;27.22;100.00;99217.53;5006115;28;20990;-40
2022/05/20 09:49:27;;;;;;;;;;;;;;;28.28;100.00;99209.56;5026014;28;19917;-39
2022/05/20 09:51:54;;;;;;;;;;;;;;;28.57;100.00;99194.19;5028692;28;20677;-39
2022/05/20 09:54:24;;;;;;;;;;;;;;;26.74;100.00;99203.63;5009543;28;19977;-39
2022/05/20 09:57:06;;;;;;;;;;;;;;;27.71;100.00;99191.47;5026806;28;19917;-40
2022/05/20 09:59:52;;;;;;;;;;;;;;;29.03;100.00;99188.50;5012433;28;19939;-40
2022/05/20 10:02:25;;;;;;;;;;;;;;;27.81;100.00;99192.22;5011570;28;19995;-41
2022/05/20 10:04:53;;;;;;;;;;;;;;;28.66;100.00;99195.03;5010753;28;19924;-40
2022/05/20 10:07:22;;;;;;;;;;;;;;;29.12;100.00;99192.03;5013458;28;20881;-40
2022/05/20 10:09:56;;;;;;;;;;;;;;;29.48;100.00;99192.56;5003028;28;19924;-40
2022/05/20 10:12:26;;;;;;;;;;;;;;;28.62;100.00;99193.69;5005753;28;19920;-40
2022/05/20 10:14:58;;;;;;;;;;;;;;;29.32;100.00;99189.91;5010945;28;19986;-40
2022/05/20 10:17:27;;;;;;;;;;;;;;;29.05;100.00;99197.13;5030596;28;19924;-40
2022/05/20 10:19:56;;;;;;;;;;;;;;;27.04;100.00;99191.88;5002583;28;20044;-40
2022/05/20 10:22:24;;;;;;;;;;;;;;;29.50;100.00;99164.03;5028239;28;19970;-40
2022/05/20 10:24:52;;;;;;;;;;;;;;;29.80;100.00;99164.38;5025984;28;20246;-40
2022/05/20 10:27:20;;;;;;;;;;;;;;;29.70;100.00;99161.91;5030309;28;19962;-40
2022/05/20 10:32:34;;;;;;;;;;;;;;;28.97;100.00;99171.44;5022590;28;20786;-40
2022/05/20 10:35:00;;;;;;;;;;;;;;;29.77;100.00;99154.91;5028425;28;19916;-40
2022/05/20 10:37:32;;;;;;;;;;;;;;;28.33;100.00;99155.16;5006802;28;19963;-40
2022/05/20 10:40:06;;;;;;;;;;;;;;;29.49;100.00;99141.16;5006684;28;19920;-40
2022/05/20 10:42:31;;;;;;;;;;;;;;;30.09;100.00;99123.97;5027972;28;19916;-40
2022/05/20 10:50:38;;;;;;;;;;;;;;;28.54;100.00;99130.09;5026708;28;20012;-40
2022/05/20 10:53:08;;;;;;;;;;;;;;;29.04;100.00;99115.94;5008644;28;20352;-40
2022/05/20 10:55:53;;;;;;;;;;;;;;;28.73;100.00;99097.16;5029060;28;19921;-40
2022/05/20 10:58:38;;;;;;;;;;;;;;;29.75;100.00;99103.00;5035141;28;20881;-40
2022/05/20 11:01:11;;;;;;;;;;;;;;;28.04;100.00;99107.03;5030392;28;19925;-47
2022/05/20 11:03:56;;;;;;;;;;;;;;;27.76;100.00;99104.53;5010323;28;19966;-44
2022/05/20 11:07:00;;;;;;;;;;;;;;;28.64;100.00;99090.19;5014040;28;19917;-44
2022/05/20 11:09:49;;;;;;;;;;;;;;;29.87;100.00;99064.44;4980162;28;19974;-47
2022/05/20 11:12:24;;;;;;;;;;;;;;;29.14;100.00;99068.06;4939416;28;19917;-46
2022/05/20 11:15:08;;;;;;;;;;;;;;;31.21;100.00;99062.50;4992462;28;19996;-44
2022/05/20 11:17:49;;;;;;;;;;;;;;;30.80;100.00;99052.16;5024254;28;19925;-46
2022/05/20 11:20:20;;;;;;;;;;;;;;;32.21;100.00;99039.94;5026426;28;19925;-47
2022/05/20 11:22:54;;;;;;;;;;;;;;;30.13;100.00;99037.63;5025201;28;19920;-47
2022/05/20 11:25:30;;;;;;;;;;;;;;;30.32;100.00;99020.44;5029283;28;19970;-49
2022/05/20 11:28:07;;;;;;;;;;;;;;;30.27;100.00;99012.19;5009787;28;20348;-46
2022/05/20 11:30:35;;;;;;;;;;;;;;;29.19;100.00;99000.28;5028862;28;19917;-45
2022/05/20 11:33:01;;;;;;;;;;;;;;;29.04;100.00;99015.16;5029538;28;19924;-47
2022/05/20 11:35:59;;;;;;;;;;;;;;;29.35;100.00;99006.50;5031987;28;19936;-49
2022/05/20 11:38:30;;;;;;;;;;;;;;;30.13;100.00;98999.59;5003369;28;19963;-46
2022/05/20 11:41:08;;;;;;;;;;;;;;;31.97;100.00;98988.63;5028016;28;20262;-50
2022/05/20 11:43:42;;;;;;;;;;;;;;;31.23;100.00;98981.47;5030453;28;19927;-47
2022/05/20 11:46:27;;;;;;;;;;;;;;;31.52;100.00;98973.69;5012342;28;19925;-48
2022/05/20 11:49:04;;;;;;;;;;;;;;;29.71;100.00;98980.38;5028144;28;19921;-48
2022/05/20 11:51:37;;;;;;;;;;;;;;;30.39;100.00;98962.94;5032372;28;19960;-46
2022/05/20 11:54:05;;;;;;;;;;;;;;;31.93;100.00;98952.69;5004194;28;19921;-40
2022/05/20 11:56:48;;;;;;;;;;;;;;;28.26;100.00;98952.84;5032669;28;20252;-40
2022/05/20 11:59:17;;;;;;;;;;;;;;;31.52;100.00;98942.59;5015975;28;20027;-40
2022/05/20 12:01:43;;;;;;;;;;;;;;;29.77;100.00;98931.91;5037202;28;19923;-40
2022/05/20 12:04:09;;;;;;;;;;;;;;;30.02;100.00;98921.16;5015723;28;20266;-40
2022/05/20 12:06:44;;;;;;;;;;;;;;;30.99;100.00;98920.56;5023529;28;19935;-49
2022/05/20 12:09:28;;;;;;;;;;;;;;;31.81;100.00;98909.75;5017290;28;19920;-47
2022/05/20 12:12:11;;;;;;;;;;;;;;;32.42;100.00;98906.69;5038997;28;19925;-47
2022/05/20 12:14:55;;;;;;;;;;;;;;;31.72;100.00;98888.75;5019647;28;19983;-45
2022/05/20 12:17:39;;;;;;;;;;;;;;;30.75;100.00;98887.88;5036419;28;19917;-49
2022/05/20 12:25:48;;;;;;;;;;;;;;;32.24;100.00;98861.03;5029676;28;20007;-49
2022/05/20 12:28:23;;;;;;;;;;;;;;;31.63;100.00;98851.59;5007579;28;19916;-47
2022/05/20 12:31:07;;;;;;;;;;;;;;;32.13;100.00;98849.03;5035633;28;19921;-46
2022/05/20 12:33:44;;;;;;;;;;;;;;;30.72;100.00;98851.00;5035672;28;20540;-46
2022/05/20 12:36:15;;;;;;;;;;;;;;;30.48;100.00;98827.34;5031020;28;19925;-47
2022/05/20 12:38:40;;;;;;;;;;;;;;;31.03;100.00;98818.94;5036973;28;20055;-45
2022/05/20 12:41:22;;;;;;;;;;;;;;;32.39;100.00;98808.47;5015822;28;19916;-48
2022/05/20 12:43:52;;;;;;;;;;;;;;;32.34;100.00;98802.03;5018793;28;20437;-47
2022/05/20 12:46:19;;;;;;;;;;;;;;;31.67;100.00;98793.47;5032189;28;19917;-47
2022/05/20 12:48:45;;;;;;;;;;;;;;;29.28;100.00;98788.03;5014978;28;19917;-46
2022/05/20 12:51:10;;;;;;;;;;;;;;;33.05;100.00;98767.19;5034885;28;20358;-47
2022/05/20 12:53:38;;;;;;;;;;;;;;;32.52;100.00;98762.41;5033110;28;19925;-45
2022/05/20 12:56:03;;;;;;;;;;;;;;;30.90;100.00;98762.91;5036057;28;19916;-46
2022/05/20 12:58:30;;;;;;;;;;;;;;;31.40;100.00;98763.88;5010062;28;19931;-45
2022/05/20 13:00:56;;;;;;;;;;;;;;;30.47;100.00;98765.38;5012986;28;20078;-50
2022/05/20 13:03:34;;;;;;;;;;;;;;;31.25;100.00;98769.28;5028013;28;20608;-47
2022/05/20 13:06:00;;;;;;;;;;;;;;;32.32;100.00;98750.78;5014099;28;20757;-47
2022/05/20 13:08:27;;;;;;;;;;;;;;;31.05;100.00;98741.63;5026933;28;19933;-46
2022/05/20 13:10:52;;;;;;;;;;;;;;;29.96;100.00;98765.19;5029390;28;20015;-48
2022/05/20 13:13:23;;;;;;;;;;;;;;;32.07;100.00;98759.25;5027176;28;19917;-49
2022/05/20 13:15:54;;;;;;;;;;;;;;;32.42;100.00;98762.75;5014796;28;19917;-47